Terminal Aerodrome Forecast
Issued by NWS Dodge City, KS

Home | Current Version | Previous Version | Graphics & Text | Print | Product List | Glossary Off
Versions: 1 2 3 4 5 6 7 8 9 10 11 12 13 14 15 16 17 18 19 20 21 22 23 24 25 26 27 28 29 30 31 32

461
FTUS43 KDDC 241131
TAFDDC
TAF
KDDC 241131Z 2412/2512 17023G31KT P6SM SCT250 WS020/21050KT
     FM241300 19022G30KT P6SM SCT250
     FM242000 19012KT P6SM SCT250
     FM250400 12009KT P6SM SCT200=

USA.gov is the U.S. government's official web portal to all federal, state and local government web resources and services.